createdAt,value
2018-05-23T00:00:36.432Z,88.54
2018-05-23T00:01:41.998Z,88.46
2018-05-23T00:02:48.264Z,88.46
2018-05-23T00:03:53.247Z,88.35
2018-05-23T00:04:57.926Z,88.26
2018-05-23T00:06:02.553Z,88.27
2018-05-23T00:07:07.870Z,88.40
2018-05-23T00:08:13.788Z,88.74
2018-05-23T00:09:18.733Z,89.07
2018-05-23T00:10:23.300Z,89.27
2018-05-23T00:11:27.846Z,89.41
2018-05-23T00:12:32.391Z,89.45
2018-05-23T00:13:36.982Z,89.47
2018-05-23T00:14:41.524Z,89.49
2018-05-23T00:15:46.384Z,89.54
2018-05-23T00:16:51.060Z,89.55
2018-05-23T00:17:55.651Z,89.56
2018-05-23T00:19:00.341Z,89.53
2018-05-23T00:20:05.943Z,89.51
2018-05-23T00:21:10.595Z,89.44
2018-05-23T00:22:16.577Z,89.45
2018-05-23T00:23:24.309Z,89.50
2018-05-23T00:24:30.270Z,89.50
2018-05-23T00:25:35.323Z,89.48
2018-05-23T00:26:40.070Z,89.57
2018-05-23T00:27:45.589Z,89.64
2018-05-23T00:28:50.495Z,89.72
2018-05-23T00:29:55.110Z,89.81
2018-05-23T00:31:01.159Z,89.81
2018-05-23T00:32:05.764Z,89.86
2018-05-23T00:33:15.097Z,89.87
2018-05-23T00:34:19.984Z,89.86
2018-05-23T00:35:25.435Z,89.81
2018-05-23T00:36:31.342Z,89.83
2018-05-23T00:37:35.925Z,89.88
2018-05-23T00:38:42.265Z,89.91
2018-05-23T00:39:47.130Z,89.99
2018-05-23T00:40:52.745Z,90.06
2018-05-23T00:41:58.026Z,90.06
2018-05-23T00:43:02.778Z,90.05
2018-05-23T00:44:07.441Z,90.01
2018-05-23T00:45:12.037Z,89.97
2018-05-23T00:46:17.011Z,89.99
2018-05-23T00:47:21.591Z,89.98
2018-05-23T00:48:26.722Z,89.99
2018-05-23T00:49:31.334Z,90.00
2018-05-23T00:50:37.139Z,90.02
2018-05-23T00:51:42.180Z,90.09
2018-05-23T00:52:46.877Z,90.20
2018-05-23T00:53:51.513Z,90.14
2018-05-23T00:55:00.668Z,90.16
2018-05-23T00:56:05.251Z,90.33
2018-05-23T00:57:09.983Z,90.40
2018-05-23T00:58:15.723Z,90.46
2018-05-23T00:59:20.818Z,90.55
2018-05-23T01:00:26.072Z,90.64
2018-05-23T01:01:31.626Z,90.68
2018-05-23T01:02:36.480Z,90.69
2018-05-23T01:03:41.581Z,90.69
2018-05-23T01:04:46.192Z,90.67
2018-05-23T01:05:51.596Z,90.62
2018-05-23T01:06:56.957Z,90.58
2018-05-23T01:08:02.753Z,90.53
2018-05-23T01:09:08.369Z,90.50
2018-05-23T01:10:13.514Z,90.48
2018-05-23T01:11:19.690Z,90.46
2018-05-23T01:12:24.390Z,90.42
2018-05-23T01:13:30.795Z,90.42
2018-05-23T01:14:37.114Z,90.49
2018-05-23T01:15:42.201Z,90.56
2018-05-23T01:16:46.808Z,90.62
2018-05-23T01:17:52.172Z,90.61
2018-05-23T01:18:56.993Z,90.64
2018-05-23T01:20:01.507Z,90.65
2018-05-23T01:21:06.650Z,90.69
2018-05-23T01:22:11.749Z,90.78
2018-05-23T01:23:17.328Z,90.82
2018-05-23T01:24:22.763Z,90.84
2018-05-23T01:25:28.510Z,90.87
2018-05-23T01:26:33.785Z,90.88
2018-05-23T01:27:39.576Z,90.84
2018-05-23T01:28:44.285Z,90.81
2018-05-23T01:29:48.816Z,90.78
2018-05-23T01:30:53.296Z,90.75
2018-05-23T01:31:57.938Z,90.69
2018-05-23T01:33:02.719Z,90.62
2018-05-23T01:34:08.176Z,90.55
2018-05-23T01:35:13.076Z,90.54
2018-05-23T01:36:17.669Z,90.52
2018-05-23T01:37:23.413Z,90.54
2018-05-23T01:38:27.921Z,90.55
2018-05-23T01:39:33.467Z,90.54
2018-05-23T01:40:38.056Z,90.51
2018-05-23T01:41:42.621Z,90.52
2018-05-23T01:42:48.350Z,90.48
2018-05-23T01:43:52.884Z,90.46
2018-05-23T01:44:57.453Z,90.51
2018-05-23T01:46:02.652Z,90.57
2018-05-23T01:47:07.168Z,90.62
2018-05-23T01:48:11.687Z,90.57
2018-05-23T01:49:21.473Z,90.54
2018-05-23T01:50:26.091Z,90.51
2018-05-23T01:51:30.655Z,90.50
2018-05-23T01:52:35.555Z,90.49
2018-05-23T01:53:40.116Z,90.47
2018-05-23T01:54:44.667Z,90.42
2018-05-23T01:55:49.201Z,90.42
2018-05-23T01:56:53.739Z,90.53
2018-05-23T01:57:58.249Z,90.55
2018-05-23T01:59:03.078Z,90.62
2018-05-23T02:00:07.617Z,90.64
2018-05-23T02:01:12.208Z,90.64
2018-05-23T02:02:16.752Z,90.68
2018-05-23T02:03:21.341Z,90.75
2018-05-23T02:04:26.304Z,90.81
2018-05-23T02:05:31.226Z,90.87
2018-05-23T02:06:35.732Z,91.00
2018-05-23T02:07:40.862Z,91.11
2018-05-23T02:08:46.863Z,91.12
2018-05-23T02:09:51.696Z,91.12
2018-05-23T02:10:56.349Z,91.11
2018-05-23T02:12:01.269Z,91.15
2018-05-23T02:13:05.836Z,91.16
2018-05-23T02:14:10.514Z,91.17
2018-05-23T02:15:15.259Z,91.14
2018-05-23T02:16:19.832Z,91.13
2018-05-23T02:17:24.420Z,91.10
2018-05-23T02:18:29.332Z,91.06
2018-05-23T02:19:33.955Z,91.05
2018-05-23T02:20:38.667Z,91.07
2018-05-23T02:21:43.518Z,91.04
2018-05-23T02:22:48.157Z,90.98
2018-05-23T02:23:53.669Z,90.92
2018-05-23T02:24:58.482Z,90.98
2018-05-23T02:26:04.722Z,91.10
2018-05-23T02:27:09.886Z,91.17
2018-05-23T02:28:14.565Z,91.22
2018-05-23T02:29:19.437Z,91.35
2018-05-23T02:30:24.090Z,91.39
2018-05-23T02:31:30.278Z,91.35
2018-05-23T02:32:35.238Z,91.38
2018-05-23T02:33:39.769Z,91.40
2018-05-23T02:34:45.368Z,91.41
2018-05-23T02:35:51.047Z,91.38
2018-05-23T02:36:56.996Z,91.36
2018-05-23T02:38:01.892Z,91.35
2018-05-23T02:39:06.554Z,91.31
2018-05-23T02:40:11.119Z,91.33
2018-05-23T02:41:16.665Z,91.30
2018-05-23T02:42:21.327Z,91.31
2018-05-23T02:43:26.129Z,91.30
2018-05-23T02:44:32.208Z,91.33
2018-05-23T02:45:37.581Z,91.32
2018-05-23T02:46:42.140Z,91.35
2018-05-23T02:47:47.132Z,91.34
2018-05-23T02:48:51.683Z,91.37
2018-05-23T02:49:57.328Z,91.44
2018-05-23T02:51:03.694Z,91.50
2018-05-23T02:52:08.546Z,91.58
2018-05-23T02:53:13.472Z,91.65
2018-05-23T02:54:18.044Z,91.74
2018-05-23T02:55:23.728Z,91.81
2018-05-23T02:56:28.378Z,91.92
2018-05-23T02:57:34.090Z,91.99
2018-05-23T02:58:38.697Z,92.02
2018-05-23T02:59:43.269Z,92.08
2018-05-23T03:00:48.478Z,92.08
2018-05-23T03:01:53.053Z,92.10
2018-05-23T03:02:57.659Z,92.05
2018-05-23T03:04:02.572Z,92.00
2018-05-23T03:05:07.160Z,92.00
2018-05-23T03:06:11.745Z,91.98
2018-05-23T03:07:16.836Z,91.95
2018-05-23T03:08:21.423Z,91.87
2018-05-23T03:09:25.999Z,91.79
2018-05-23T03:10:31.188Z,91.71
2018-05-23T03:11:35.905Z,91.70
2018-05-23T03:12:40.444Z,91.71
2018-05-23T03:13:45.102Z,91.74
2018-05-23T03:14:49.977Z,91.75
2018-05-23T03:15:55.002Z,91.75
2018-05-23T03:16:59.887Z,91.75
2018-05-23T03:18:04.625Z,91.73
2018-05-23T03:19:09.652Z,91.76
2018-05-23T03:20:15.265Z,91.74
2018-05-23T03:21:19.823Z,91.70
2018-05-23T03:22:25.168Z,91.67
2018-05-23T03:23:29.737Z,91.60
2018-05-23T03:24:34.395Z,91.61
2018-05-23T03:25:41.017Z,91.67
2018-05-23T03:26:45.541Z,91.75
2018-05-23T03:27:50.121Z,91.89
2018-05-23T03:28:55.140Z,92.02
2018-05-23T03:29:59.714Z,92.09
2018-05-23T03:31:04.769Z,92.12
2018-05-23T03:32:09.507Z,92.22
2018-05-23T03:33:15.224Z,92.32
2018-05-23T03:34:19.781Z,92.33
2018-05-23T03:35:24.708Z,92.32
2018-05-23T03:36:30.151Z,92.32
2018-05-23T03:37:34.988Z,92.36
2018-05-23T03:38:39.804Z,92.41
2018-05-23T03:39:44.385Z,92.46
2018-05-23T03:40:48.982Z,92.52
2018-05-23T03:41:53.938Z,92.62
2018-05-23T03:42:58.529Z,92.70
2018-05-23T03:44:04.208Z,92.76
2018-05-23T03:45:09.056Z,92.79
2018-05-23T03:46:13.644Z,92.83
2018-05-23T03:47:20.083Z,92.84
2018-05-23T03:48:25.914Z,92.83
2018-05-23T03:49:30.517Z,92.79
2018-05-23T03:50:36.960Z,92.73
2018-05-23T03:51:42.017Z,92.69
2018-05-23T03:52:46.634Z,92.73
2018-05-23T03:53:52.367Z,92.76
2018-05-23T03:54:57.014Z,92.80
2018-05-23T03:56:02.126Z,92.79
2018-05-23T03:57:06.770Z,92.79
2018-05-23T03:58:12.305Z,92.82
2018-05-23T03:59:16.870Z,92.84
2018-05-23T04:02:34.449Z,92.90
2018-05-23T04:03:44.390Z,93.03
2018-05-23T04:06:55.138Z,93.11
2018-05-23T04:08:01.215Z,93.16
2018-05-23T04:09:06.539Z,93.17
2018-05-23T04:10:12.173Z,93.20
2018-05-23T04:11:16.762Z,93.22
2018-05-23T04:12:21.652Z,93.22
2018-05-23T04:13:26.272Z,93.24
2018-05-23T04:14:32.342Z,93.29
2018-05-23T04:15:36.897Z,93.35
2018-05-23T04:16:41.751Z,93.37
2018-05-23T04:17:47.417Z,93.38
2018-05-23T04:18:52.348Z,93.38
2018-05-23T04:19:57.113Z,93.34
2018-05-23T04:21:02.146Z,93.28
2018-05-23T04:22:06.684Z,93.28
2018-05-23T04:23:13.761Z,93.28
2018-05-23T04:24:18.710Z,93.30
2018-05-23T04:25:23.731Z,93.36
2018-05-23T04:26:29.357Z,93.38
2018-05-23T04:27:34.618Z,93.37
2018-05-23T04:28:39.180Z,93.27
2018-05-23T04:29:44.529Z,93.24
2018-05-23T04:30:49.116Z,93.27
2018-05-23T04:31:55.003Z,93.29
2018-05-23T04:32:59.647Z,93.30
2018-05-23T04:34:04.213Z,93.28
2018-05-23T04:35:09.314Z,93.23
2018-05-23T04:36:14.835Z,93.16
2018-05-23T04:37:19.784Z,93.15
2018-05-23T04:38:24.676Z,93.07
2018-05-23T04:39:29.809Z,92.99
2018-05-23T04:40:34.420Z,93.01
2018-05-23T04:41:40.258Z,93.01
2018-05-23T04:42:44.784Z,93.00
2018-05-23T04:43:50.463Z,92.99
2018-05-23T04:44:55.353Z,92.97
2018-05-23T04:45:59.933Z,92.92
2018-05-23T04:47:04.950Z,92.85
2018-05-23T04:48:09.596Z,92.74
2018-05-23T04:49:14.138Z,92.71
2018-05-23T04:50:18.805Z,92.66
2018-05-23T04:51:24.714Z,92.64
2018-05-23T04:52:29.515Z,92.76
2018-05-23T04:53:34.309Z,92.82
2018-05-23T04:54:38.882Z,92.80
2018-05-23T04:55:43.703Z,92.75
2018-05-23T04:56:48.380Z,92.78
2018-05-23T04:57:53.769Z,92.81
2018-05-23T04:58:58.442Z,92.79
2018-05-23T05:00:03.072Z,92.74
2018-05-23T05:01:07.827Z,92.61
2018-05-23T05:02:12.468Z,92.65
2018-05-23T05:03:18.003Z,92.64
2018-05-23T05:04:22.966Z,92.73
2018-05-23T05:05:28.465Z,92.73
2018-05-23T05:06:33.165Z,92.68
2018-05-23T05:07:37.773Z,92.63
2018-05-23T05:08:43.544Z,92.45
2018-05-23T05:09:48.143Z,92.37
2018-05-23T05:10:53.000Z,92.47
2018-05-23T05:11:57.553Z,92.69
2018-05-23T05:13:02.524Z,92.77
2018-05-23T05:14:07.155Z,92.81
2018-05-23T05:15:13.615Z,92.80
2018-05-23T05:16:18.445Z,92.70
2018-05-23T05:17:23.334Z,92.61
2018-05-23T05:18:27.943Z,92.54
2018-05-23T05:19:33.436Z,92.42
2018-05-23T05:20:38.549Z,92.31
2018-05-23T05:21:43.225Z,92.32
2018-05-23T05:22:47.909Z,92.28
2018-05-23T05:23:53.528Z,92.24
2018-05-23T05:24:58.114Z,92.18
2018-05-23T05:26:03.610Z,92.14
2018-05-23T05:27:08.583Z,91.99
2018-05-23T05:28:13.348Z,91.81
2018-05-23T05:29:18.306Z,91.68
2018-05-23T05:30:22.889Z,91.60
2018-05-23T05:31:27.759Z,91.56
2018-05-23T05:32:32.394Z,91.46
2018-05-23T05:33:37.317Z,91.33
2018-05-23T05:34:41.861Z,91.20
2018-05-23T05:35:46.656Z,91.07
2018-05-23T05:36:51.160Z,90.97
2018-05-23T05:37:57.079Z,90.89
2018-05-23T05:39:01.822Z,90.75
2018-05-23T05:40:07.131Z,90.71
2018-05-23T05:41:13.372Z,90.87
2018-05-23T05:42:18.961Z,90.96
2018-05-23T05:43:24.184Z,90.93
2018-05-23T05:44:29.297Z,90.92
2018-05-23T05:45:34.329Z,90.90
2018-05-23T05:46:39.025Z,90.93
2018-05-23T05:47:43.722Z,90.87
2018-05-23T05:48:48.889Z,90.73
2018-05-23T05:49:53.816Z,90.63
2018-05-23T05:50:58.650Z,90.55
2018-05-23T05:52:03.809Z,90.49
2018-05-23T05:53:10.205Z,90.35
2018-05-23T05:54:15.420Z,90.33
2018-05-23T05:55:21.255Z,90.23
2018-05-23T05:56:27.250Z,90.18
2018-05-23T05:57:31.854Z,90.16
2018-05-23T05:58:36.997Z,90.19
2018-05-23T05:59:42.215Z,90.22
2018-05-23T06:00:47.008Z,90.18
2018-05-23T06:01:51.884Z,90.12
2018-05-23T06:02:57.781Z,90.08
2018-05-23T06:04:02.609Z,90.07
2018-05-23T06:05:08.294Z,89.99
2018-05-23T06:06:13.369Z,90.04
2018-05-23T06:07:18.002Z,90.03
2018-05-23T06:08:22.880Z,90.02
2018-05-23T06:09:28.722Z,89.95
2018-05-23T06:10:33.967Z,89.89
2018-05-23T06:11:38.535Z,89.93
2018-05-23T06:12:43.497Z,90.04
2018-05-23T06:13:48.195Z,89.98
2018-05-23T06:14:54.469Z,90.02
2018-05-23T06:15:59.148Z,89.95
2018-05-23T06:17:04.096Z,89.97
2018-05-23T06:18:08.715Z,89.95
2018-05-23T06:19:13.365Z,89.96
2018-05-23T06:20:19.218Z,89.90
2018-05-23T06:21:24.858Z,89.83
2018-05-23T06:22:29.416Z,89.82
2018-05-23T06:23:33.921Z,89.81
2018-05-23T06:24:38.749Z,89.85
2018-05-23T06:25:43.315Z,89.82
2018-05-23T06:26:47.798Z,89.58
2018-05-23T06:27:52.567Z,89.51
2018-05-23T06:28:57.805Z,89.46
2018-05-23T06:30:02.319Z,89.41
2018-05-23T06:31:06.876Z,89.28
2018-05-23T06:32:11.717Z,89.17
2018-05-23T06:33:16.284Z,89.09
2018-05-23T06:34:21.096Z,89.05
2018-05-23T06:35:26.107Z,88.94
2018-05-23T06:36:30.752Z,88.89
2018-05-23T06:37:35.263Z,88.64
2018-05-23T06:38:39.860Z,88.53
2018-05-23T06:39:44.980Z,88.53
2018-05-23T06:40:49.927Z,88.42
2018-05-23T06:41:57.446Z,88.26
2018-05-23T06:43:03.044Z,88.18
2018-05-23T06:44:07.696Z,88.20
2018-05-23T06:45:13.824Z,88.35
2018-05-23T06:46:18.382Z,88.41
2018-05-23T06:47:24.258Z,88.24
2018-05-23T06:48:32.713Z,88.18
2018-05-23T06:49:38.325Z,88.13
2018-05-23T06:50:43.373Z,88.06
2018-05-23T06:51:48.360Z,87.98
2018-05-23T06:52:53.705Z,87.83
2018-05-23T06:53:59.067Z,87.79
2018-05-23T06:55:04.716Z,87.67
2018-05-23T06:56:10.476Z,87.54
2018-05-23T06:57:15.665Z,87.42
2018-05-23T06:58:23.219Z,87.38
2018-05-23T06:59:29.585Z,87.33
2018-05-23T07:00:35.366Z,87.10
2018-05-23T07:01:41.144Z,86.91
2018-05-23T07:02:47.259Z,86.83
2018-05-23T07:03:54.709Z,86.49
2018-05-23T07:04:59.974Z,86.07
2018-05-23T07:06:05.343Z,85.79
2018-05-23T07:07:12.598Z,85.80
2018-05-23T07:08:17.943Z,85.75
2018-05-23T07:09:22.783Z,85.75
2018-05-23T07:10:29.255Z,85.71
2018-05-23T07:11:36.071Z,85.83
2018-05-23T07:12:40.650Z,85.75
2018-05-23T07:13:46.022Z,85.59
2018-05-23T07:14:51.171Z,85.41
2018-05-23T07:15:57.122Z,85.25
2018-05-23T07:17:02.837Z,85.01
2018-05-23T07:18:08.980Z,84.69
2018-05-23T07:19:15.849Z,84.42
2018-05-23T07:20:20.772Z,84.29
2018-05-23T07:21:26.446Z,84.15
2018-05-23T07:22:31.099Z,84.13
2018-05-23T07:23:36.734Z,83.66
2018-05-23T07:24:41.717Z,83.38
2018-05-23T07:25:47.371Z,83.02
2018-05-23T07:26:52.011Z,82.97
2018-05-23T07:27:58.616Z,83.20
2018-05-23T07:29:03.248Z,83.10
2018-05-23T07:30:07.965Z,82.93
2018-05-23T07:31:13.104Z,82.70
2018-05-23T07:32:17.671Z,82.51
2018-05-23T07:33:23.263Z,82.13
2018-05-23T07:34:27.893Z,81.93
2018-05-23T07:35:32.840Z,81.58
2018-05-23T07:36:37.421Z,81.03
2018-05-23T07:37:44.305Z,80.75
2018-05-23T07:38:49.297Z,80.28
2018-05-23T07:39:54.024Z,79.88
2018-05-23T07:40:58.621Z,79.20
2018-05-23T07:42:03.770Z,78.71
2018-05-23T07:43:08.341Z,78.25
2018-05-23T07:44:14.768Z,77.95
2018-05-23T07:45:19.917Z,77.57
2018-05-23T07:46:26.014Z,76.93
2018-05-23T07:47:30.549Z,76.26
2018-05-23T07:48:35.068Z,76.01
2018-05-23T07:49:39.560Z,75.86
2018-05-23T07:50:44.347Z,74.97
2018-05-23T07:51:48.801Z,74.15
2018-05-23T07:52:53.289Z,73.42
2018-05-23T07:53:57.797Z,73.05
2018-05-23T07:55:03.928Z,72.48
2018-05-23T07:56:08.459Z,72.24
2018-05-23T07:57:13.237Z,72.01
2018-05-23T07:58:17.804Z,71.85
2018-05-23T07:59:23.048Z,71.69
2018-05-23T08:00:27.544Z,71.36
2018-05-23T08:01:32.203Z,70.90
2018-05-23T08:02:36.996Z,70.42
2018-05-23T08:03:41.855Z,70.31
2018-05-23T08:04:46.398Z,70.31
2018-05-23T08:05:50.965Z,70.39
2018-05-23T08:06:55.480Z,69.69
2018-05-23T08:08:00.245Z,69.04
2018-05-23T08:09:04.974Z,68.91
2018-05-23T08:10:10.095Z,68.82
2018-05-23T08:11:14.664Z,68.29
2018-05-23T08:12:19.336Z,67.69
2018-05-23T08:13:24.239Z,67.23
2018-05-23T08:14:29.066Z,67.12
2018-05-23T08:15:33.681Z,66.97
2018-05-23T08:16:38.720Z,66.62
2018-05-23T08:17:43.352Z,66.47
2018-05-23T08:18:47.960Z,66.16
2018-05-23T08:19:52.626Z,65.65
2018-05-23T08:20:57.248Z,65.37
2018-05-23T08:22:02.035Z,65.37
2018-05-23T08:23:06.962Z,64.42
2018-05-23T08:24:11.623Z,64.64
2018-05-23T08:25:16.205Z,64.05
2018-05-23T08:26:20.867Z,63.02
2018-05-23T08:27:25.453Z,63.46
2018-05-23T08:28:30.037Z,63.39
2018-05-23T08:29:35.912Z,63.48
2018-05-23T08:30:41.080Z,63.11
2018-05-23T08:31:46.522Z,62.11
2018-05-23T08:32:51.497Z,62.19
2018-05-23T08:33:56.564Z,60.85
2018-05-23T08:35:01.186Z,60.52
2018-05-23T08:36:06.312Z,60.36
2018-05-23T08:37:11.452Z,60.18
2018-05-23T08:38:16.687Z,59.99
2018-05-23T08:39:21.952Z,59.41
2018-05-23T08:40:26.559Z,59.72
2018-05-23T08:41:31.216Z,59.72
2018-05-23T08:42:36.174Z,59.47
2018-05-23T08:43:41.350Z,59.23
2018-05-23T08:44:47.065Z,59.41
2018-05-23T08:45:52.424Z,59.44
2018-05-23T08:46:57.629Z,59.36
2018-05-23T08:48:02.582Z,59.60
2018-05-23T08:49:07.999Z,59.57
2018-05-23T08:50:12.652Z,59.86
2018-05-23T08:51:17.912Z,59.42
2018-05-23T08:52:23.996Z,59.35
2018-05-23T08:53:30.053Z,59.06
2018-05-23T08:54:34.927Z,59.44
2018-05-23T08:55:40.588Z,59.48
2018-05-23T08:56:46.119Z,59.10
2018-05-23T08:57:52.150Z,59.46
2018-05-23T08:58:57.146Z,59.67
2018-05-23T09:00:01.930Z,59.49
2018-05-23T09:01:06.602Z,59.20
2018-05-23T09:02:11.144Z,59.13
2018-05-23T09:03:17.254Z,58.95
2018-05-23T09:04:21.962Z,58.99
2018-05-23T09:05:26.564Z,59.12
2018-05-23T09:06:31.113Z,59.18
2018-05-23T09:07:37.939Z,59.35
2018-05-23T09:08:43.445Z,59.71
2018-05-23T09:09:47.974Z,59.45
2018-05-23T09:10:52.487Z,59.61
2018-05-23T09:11:56.987Z,59.76
2018-05-23T09:13:01.529Z,60.12
2018-05-23T09:14:06.367Z,60.11
2018-05-23T09:15:10.943Z,60.09
2018-05-23T09:16:15.762Z,60.31
2018-05-23T09:17:22.861Z,60.47
2018-05-23T09:18:27.365Z,60.47
2018-05-23T09:19:31.922Z,60.61
2018-05-23T09:20:36.742Z,60.49
2018-05-23T09:21:41.249Z,60.79
2018-05-23T09:22:45.820Z,60.23
2018-05-23T09:23:50.375Z,60.15
2018-05-23T09:24:54.873Z,60.50
2018-05-23T09:25:59.457Z,60.65
2018-05-23T09:27:04.382Z,60.86
2018-05-23T09:28:08.954Z,61.14
2018-05-23T09:29:13.495Z,61.38
2018-05-23T09:30:18.137Z,61.48
2018-05-23T09:31:22.742Z,61.74
2018-05-23T09:32:27.331Z,61.84
2018-05-23T09:33:32.178Z,62.30
2018-05-23T09:34:36.865Z,62.32
2018-05-23T09:35:41.539Z,62.42
2018-05-23T09:36:46.032Z,62.63
2018-05-23T09:37:51.119Z,63.05
2018-05-23T09:38:55.758Z,63.09
2018-05-23T09:40:00.649Z,63.16
2018-05-23T09:41:05.813Z,63.24
2018-05-23T09:42:10.377Z,63.69
2018-05-23T09:43:14.915Z,63.92
2018-05-23T09:44:19.581Z,63.97
2018-05-23T09:45:24.248Z,64.49
2018-05-23T09:46:30.112Z,64.02
2018-05-23T09:47:35.749Z,64.02
2018-05-23T09:48:40.735Z,63.93
2018-05-23T09:49:45.781Z,64.13
2018-05-23T09:50:50.521Z,63.83
2018-05-23T09:51:55.414Z,63.69
2018-05-23T09:53:00.326Z,63.87
2018-05-23T09:54:04.951Z,63.94
2018-05-23T09:55:09.634Z,63.96
2018-05-23T09:56:14.356Z,64.02
2018-05-23T09:57:18.987Z,64.07
2018-05-23T09:58:23.717Z,63.90
2018-05-23T09:59:28.372Z,63.95
2018-05-23T10:00:33.123Z,63.81
2018-05-23T10:01:37.896Z,64.34
2018-05-23T10:02:42.473Z,65.21
2018-05-23T10:03:46.971Z,65.54
2018-05-23T10:04:51.904Z,65.72
2018-05-23T10:05:56.351Z,65.87
2018-05-23T10:07:00.917Z,65.93
2018-05-23T10:08:05.421Z,66.16
2018-05-23T10:09:09.986Z,66.39
2018-05-23T10:10:14.607Z,66.55
2018-05-23T10:11:19.461Z,66.81
2018-05-23T10:12:23.900Z,67.08
2018-05-23T10:13:28.425Z,67.44
2018-05-23T10:14:32.958Z,67.20
2018-05-23T10:15:37.484Z,66.94
2018-05-23T10:16:41.948Z,67.22
2018-05-23T10:17:46.801Z,67.44
2018-05-23T10:18:51.422Z,67.67
2018-05-23T10:19:55.958Z,67.83
2018-05-23T10:21:00.629Z,68.21
2018-05-23T10:22:05.184Z,67.85
2018-05-23T10:23:09.728Z,66.03
2018-05-23T10:24:14.595Z,65.81
2018-05-23T10:25:19.102Z,66.00
2018-05-23T10:26:23.706Z,65.89
2018-05-23T10:27:28.216Z,65.85
2018-05-23T10:28:32.658Z,66.08
2018-05-23T10:29:37.184Z,66.05
2018-05-23T10:30:42.196Z,65.89
2018-05-23T10:31:46.725Z,66.09
2018-05-23T10:32:51.256Z,65.31
2018-05-23T10:33:56.110Z,64.87
2018-05-23T10:35:00.941Z,64.35
2018-05-23T10:36:07.458Z,64.19
2018-05-23T10:37:12.877Z,64.08
2018-05-23T10:38:18.657Z,64.24
2018-05-23T10:39:25.388Z,64.31
2018-05-23T10:40:30.663Z,64.16
2018-05-23T10:41:36.845Z,64.25
2018-05-23T10:42:42.988Z,64.31
2018-05-23T10:43:50.268Z,64.17
2018-05-23T10:44:56.414Z,64.01
2018-05-23T10:46:01.490Z,63.88
2018-05-23T10:47:07.373Z,63.82
2018-05-23T10:48:13.305Z,63.75
2018-05-23T10:49:17.976Z,63.50
2018-05-23T10:50:23.389Z,63.05
2018-05-23T10:51:30.270Z,63.00
2018-05-23T10:52:34.859Z,62.98
2018-05-23T10:53:41.789Z,62.74
2018-05-23T10:54:46.542Z,62.25
2018-05-23T10:55:51.397Z,61.98
2018-05-23T10:56:57.413Z,61.53
2018-05-23T10:58:04.931Z,61.08
2018-05-23T10:59:11.713Z,60.82
2018-05-23T11:00:16.690Z,60.24
2018-05-23T11:01:21.449Z,59.68
2018-05-23T11:02:27.152Z,59.25
2018-05-23T11:03:32.098Z,58.86
2018-05-23T11:04:37.403Z,58.45
2018-05-23T11:05:42.543Z,58.33
2018-05-23T11:06:47.086Z,58.46
2018-05-23T11:07:52.995Z,58.59
2018-05-23T11:08:57.964Z,58.53
2018-05-23T11:10:02.568Z,58.38
2018-05-23T11:11:07.279Z,58.26
2018-05-23T11:12:11.817Z,58.20
2018-05-23T11:13:16.609Z,58.17
2018-05-23T11:14:21.146Z,58.14
2018-05-23T11:15:26.040Z,57.86
2018-05-23T11:16:30.649Z,57.47
2018-05-23T11:17:35.233Z,57.26
2018-05-23T11:18:39.750Z,57.34
2018-05-23T11:19:44.526Z,57.94
2018-05-23T11:20:49.098Z,59.10
2018-05-23T11:21:53.948Z,59.35
2018-05-23T11:22:58.568Z,59.46
2018-05-23T11:24:03.321Z,60.23
2018-05-23T11:25:08.661Z,60.37
2018-05-23T11:26:13.341Z,59.34
2018-05-23T11:27:18.106Z,59.13
2018-05-23T11:28:23.437Z,59.02
2018-05-23T11:29:28.266Z,59.12
2018-05-23T11:30:33.111Z,58.78
2018-05-23T11:31:37.833Z,58.57
2018-05-23T11:32:42.775Z,58.29
2018-05-23T11:33:47.646Z,58.09
2018-05-23T11:34:52.874Z,58.04
2018-05-23T11:35:57.540Z,58.10
2018-05-23T11:37:02.286Z,57.45
2018-05-23T11:38:06.973Z,57.13
2018-05-23T11:39:11.753Z,56.93
2018-05-23T11:40:16.480Z,56.58
2018-05-23T11:41:21.691Z,56.62
2018-05-23T11:42:26.494Z,56.58
2018-05-23T11:43:31.473Z,56.72
2018-05-23T11:44:36.386Z,56.52
2018-05-23T11:45:41.372Z,56.64
2018-05-23T11:46:46.186Z,56.75
2018-05-23T11:47:51.263Z,57.14
2018-05-23T11:48:56.183Z,57.54
2018-05-23T11:50:01.097Z,57.40
2018-05-23T11:51:05.873Z,56.87
2018-05-23T11:52:10.758Z,56.82
2018-05-23T11:53:15.615Z,56.49
2018-05-23T11:54:20.886Z,57.01
2018-05-23T11:55:25.690Z,56.91
2018-05-23T11:56:30.508Z,56.85
2018-05-23T11:57:35.280Z,56.58
2018-05-23T11:58:39.956Z,56.29
2018-05-23T11:59:44.630Z,56.42
2018-05-23T12:00:49.643Z,56.24
2018-05-23T12:01:54.503Z,56.23
2018-05-23T12:02:59.242Z,56.35
2018-05-23T12:04:03.939Z,56.20
2018-05-23T12:05:08.657Z,55.46
2018-05-23T12:06:13.813Z,54.85
2018-05-23T12:07:20.103Z,54.57
2018-05-23T12:08:24.891Z,54.63
2018-05-23T12:09:29.840Z,54.64
2018-05-23T12:10:35.053Z,55.04
2018-05-23T12:11:39.785Z,54.96
2018-05-23T12:12:44.750Z,54.84
2018-05-23T12:13:49.941Z,54.59
2018-05-23T12:14:54.676Z,54.40
2018-05-23T12:15:59.428Z,54.02
2018-05-23T12:17:04.607Z,54.17
2018-05-23T12:18:09.252Z,53.69
2018-05-23T12:19:14.041Z,53.44
2018-05-23T12:20:19.172Z,53.66
2018-05-23T12:21:23.831Z,52.95
2018-05-23T12:22:28.477Z,53.00
2018-05-23T12:23:33.379Z,52.90
2018-05-23T12:24:38.658Z,52.51
2018-05-23T12:25:43.367Z,52.45
2018-05-23T12:26:48.399Z,52.30
2018-05-23T12:27:53.122Z,52.17
2018-05-23T12:28:58.040Z,52.13
2018-05-23T12:30:02.781Z,52.26
2018-05-23T12:31:07.609Z,51.74
2018-05-23T12:32:12.260Z,51.62
2018-05-23T12:33:17.226Z,51.71
2018-05-23T12:34:21.884Z,51.82
2018-05-23T12:35:26.655Z,51.79
2018-05-23T12:36:32.372Z,51.63
2018-05-23T12:37:37.078Z,51.65
2018-05-23T12:38:41.879Z,51.84
2018-05-23T12:39:47.858Z,51.94
2018-05-23T12:40:52.828Z,51.81
2018-05-23T12:41:58.285Z,51.75
2018-05-23T12:43:04.884Z,51.51
2018-05-23T12:44:09.610Z,51.52
2018-05-23T12:45:14.478Z,51.42
2018-05-23T12:46:19.645Z,51.37
2018-05-23T12:47:26.702Z,51.00
2018-05-23T12:48:33.725Z,50.95
2018-05-23T12:49:40.232Z,51.26
2018-05-23T12:50:46.420Z,51.37
2018-05-23T12:53:08.570Z,51.07
2018-05-23T12:54:13.944Z,50.80
2018-05-23T12:55:20.085Z,50.90
2018-05-23T12:56:24.787Z,50.68
2018-05-23T12:57:29.881Z,50.99
2018-05-23T12:58:36.912Z,51.18
2018-05-23T12:59:41.779Z,51.31
2018-05-23T13:00:46.508Z,51.33
2018-05-23T13:01:52.435Z,51.22
2018-05-23T13:02:58.591Z,51.26
2018-05-23T13:04:04.401Z,51.32
2018-05-23T13:05:10.758Z,51.40
2018-05-23T13:06:16.373Z,51.44
2018-05-23T13:07:21.266Z,51.49
2018-05-23T13:08:27.756Z,51.23
2018-05-23T13:09:32.978Z,50.63
2018-05-23T13:10:39.233Z,50.42
2018-05-23T13:11:45.571Z,50.02
2018-05-23T13:12:50.858Z,49.60
2018-05-23T13:13:55.683Z,49.81
2018-05-23T13:15:00.492Z,49.13
2018-05-23T13:16:05.289Z,49.04
2018-05-23T13:17:10.329Z,49.19
2018-05-23T13:18:16.445Z,48.84
2018-05-23T13:19:21.244Z,48.68
2018-05-23T13:20:26.383Z,48.88
2018-05-23T13:21:31.506Z,48.37
2018-05-23T13:22:37.378Z,48.65
2018-05-23T13:23:43.035Z,48.88
2018-05-23T13:24:48.876Z,49.04
2018-05-23T13:25:53.665Z,48.68
2018-05-23T13:26:58.495Z,48.87
2018-05-23T13:28:03.434Z,48.84
2018-05-23T13:29:08.366Z,48.77
2018-05-23T13:30:13.870Z,48.55
2018-05-23T13:31:20.256Z,48.46
2018-05-23T13:32:26.626Z,48.55
2018-05-23T13:33:31.415Z,48.39
2018-05-23T13:34:36.456Z,48.68
2018-05-23T13:35:42.317Z,48.41
2018-05-23T13:36:48.616Z,48.10
2018-05-23T13:37:54.232Z,48.08
2018-05-23T13:38:59.027Z,48.25
2018-05-23T13:40:03.935Z,48.37
2018-05-23T13:41:08.729Z,48.34
2018-05-23T13:42:13.529Z,48.30
2018-05-23T13:43:18.481Z,48.50
2018-05-23T13:44:25.039Z,48.24
2018-05-23T13:45:29.951Z,47.96
2018-05-23T13:46:35.013Z,47.88
2018-05-23T13:47:39.865Z,48.10
2018-05-23T13:48:44.736Z,47.96
2018-05-23T13:49:49.520Z,48.16
2018-05-23T13:50:54.609Z,48.38
2018-05-23T13:51:59.396Z,47.79
2018-05-23T13:53:04.310Z,47.16
2018-05-23T13:54:09.135Z,46.97
2018-05-23T13:55:14.138Z,46.71
2018-05-23T13:56:18.833Z,46.88
2018-05-23T13:57:25.079Z,47.19
2018-05-23T13:58:30.329Z,47.42
2018-05-23T13:59:38.235Z,47.29
2018-05-23T14:00:45.101Z,47.33
2018-05-23T14:01:50.455Z,47.07
2018-05-23T14:02:55.340Z,46.75
2018-05-23T14:04:00.561Z,46.82